Skip Navigation Links
NOAA logo - Click to go to the NOAA homepage
NOAA's National Weather Service
Alaska Aviation Weather Unit
  NWS logo - Click to go to the NWS homepage
Left Navbar Graphic     12 AKDT = 20 GMT

   
NOAA is celebrating 200 years of science, service, and stewardship. Visit the NOAA 200th celebration Web site to learn more.
USA.gov is the U.S. Government's official Web portal to all Federal, state and local government Web resources and services.
Facebook
NWS on Facebook

Important Change Regarding the AAWU Web Presence

 

Over the last several months, the AAWU has been working to navigate its webpages to a nationally supported server. Security, as well as other needs, have necessitated the change.  We have been given an extension for the site changeover while we diligently work at addressing feedback received. As of July 14, 2017, aawu.arh.noaa.gov will be discontinued. The new AAWU web address is weather.gov/aawu. It is now live and will run in-parallel with the old site until it is discontinued on July 14, 2017. Please continue to send any feedback or questions regarding the new webpages to nws.ar.aawu.webauthors@noaa.gov.  Thank you for your patience during this time of transition.
AAWU Home :: Display TAF Add Bookmark
TAF PAFB 252000Z 2520/2702 VRB06KT 9999 SCT020 BKN040 QNH2985INS
      TEMPO 2520/2524 9000 -SHRA BKN020
      BECMG 2601/2602 VRB06KT 9999 FEW025 BKN060 QNH2976INS
      TEMPO 2607/2612 9000 -SHRA TX18/2603Z TN14/2611Z=
METAR PAFB 251458Z 00000KT 9SM FEW018 BKN046 BKN060 13/12 A2996=

PAFB 251528Z 00000KT 8SM BKN026 OVC050 13/12 A2996=

PAFB 251543Z 00000KT 9SM SCT026 OVC050 13/12 A2996=

METAR PAFB 251558Z 16003KT 10SM FEW026 OVC050 14/11 A2996=

PAFB 251645Z 00000KT 9SM -RA FEW019 BKN050 OVC075 14/11 A2995=

METAR PAFB 251658Z 20004KT 7SM -RA FEW019 SCT050 OVC075 14/12 A2995=

PAFB 251709Z 00000KT 7SM SCT019 SCT050 BKN075 OVC090 14/12 A2995=

PAFB 251733Z 00000KT 5SM -RA FEW020 BKN042 OVC075 14/12 A2995=

METAR PAFB 251758Z 15003KT 10SM -RA SCT020 SCT027 OVC039 14/12 A2995=

PAFB 251819Z 14003KT 9SM BKN023 OVC040 14/12 A2995=

PAFB 251854Z 16003KT 10SM SCT010 OVC031 15/12 A2995=

METAR PAFB 251858Z 19003KT 10SM SCT011 OVC030 15/12 A2995=

METAR PAFB 251958Z 24005KT 10SM FEW018 OVC042 16/11 A2993=


NOAA's National Weather Service
Alaska Aviation Weather Unit
6930 Sand Lake Road
Anchorage, AK 99502-1845
Disclaimer
Credits
Glossary
Privacy Policy
About Us
Career Opportunities
Contact AAWU Internet Services Site last modified: April, 17th 2012